sensor_id;sensor_type;location;lat;lon;timestamp;P1;durP1;ratioP1;P2;durP2;ratioP2
1390;SDS011;690;51.454;7.194;2023-02-07T00:00:42;34.92;;;19.08;;
1390;SDS011;690;51.454;7.194;2023-02-07T00:03:09;35.45;;;18.55;;
1390;SDS011;690;51.454;7.194;2023-02-07T00:05:38;34.35;;;17.70;;
1390;SDS011;690;51.454;7.194;2023-02-07T00:08:05;36.38;;;18.55;;
1390;SDS011;690;51.454;7.194;2023-02-07T00:10:33;34.10;;;18.98;;
1390;SDS011;690;51.454;7.194;2023-02-07T00:13:00;38.15;;;18.35;;
1390;SDS011;690;51.454;7.194;2023-02-07T00:15:27;29.85;;;17.23;;
1390;SDS011;690;51.454;7.194;2023-02-07T00:17:54;37.15;;;18.52;;
1390;SDS011;690;51.454;7.194;2023-02-07T00:20:21;34.72;;;17.05;;
1390;SDS011;690;51.454;7.194;2023-02-07T00:22:50;36.47;;;19.65;;
1390;SDS011;690;51.454;7.194;2023-02-07T00:25:19;31.35;;;18.70;;
1390;SDS011;690;51.454;7.194;2023-02-07T00:27:46;38.78;;;19.35;;
1390;SDS011;690;51.454;7.194;2023-02-07T00:30:13;30.33;;;19.27;;
1390;SDS011;690;51.454;7.194;2023-02-07T00:32:40;30.75;;;17.63;;
1390;SDS011;690;51.454;7.194;2023-02-07T00:35:07;36.30;;;18.63;;
1390;SDS011;690;51.454;7.194;2023-02-07T00:37:34;30.92;;;18.45;;
1390;SDS011;690;51.454;7.194;2023-02-07T00:40:03;31.85;;;17.65;;
1390;SDS011;690;51.454;7.194;2023-02-07T00:42:30;34.00;;;19.02;;
1390;SDS011;690;51.454;7.194;2023-02-07T00:44:57;34.05;;;17.50;;
1390;SDS011;690;51.454;7.194;2023-02-07T00:47:24;35.63;;;18.15;;
1390;SDS011;690;51.454;7.194;2023-02-07T00:49:51;42.70;;;19.92;;
1390;SDS011;690;51.454;7.194;2023-02-07T00:52:18;40.20;;;20.40;;
1390;SDS011;690;51.454;7.194;2023-02-07T00:54:44;34.25;;;19.25;;
1390;SDS011;690;51.454;7.194;2023-02-07T00:57:13;32.20;;;18.40;;
1390;SDS011;690;51.454;7.194;2023-02-07T00:59:40;29.17;;;18.20;;
1390;SDS011;690;51.454;7.194;2023-02-07T01:02:07;41.65;;;19.67;;
1390;SDS011;690;51.454;7.194;2023-02-07T01:04:33;38.28;;;18.38;;
1390;SDS011;690;51.454;7.194;2023-02-07T01:07:00;34.58;;;19.60;;
1390;SDS011;690;51.454;7.194;2023-02-07T01:09:27;33.17;;;18.88;;
1390;SDS011;690;51.454;7.194;2023-02-07T01:11:54;36.78;;;18.10;;
1390;SDS011;690;51.454;7.194;2023-02-07T01:14:22;38.80;;;19.35;;
1390;SDS011;690;51.454;7.194;2023-02-07T01:16:49;37.92;;;19.58;;
1390;SDS011;690;51.454;7.194;2023-02-07T01:19:16;38.05;;;19.15;;
1390;SDS011;690;51.454;7.194;2023-02-07T01:21:43;35.13;;;18.60;;
1390;SDS011;690;51.454;7.194;2023-02-07T01:24:10;35.85;;;18.55;;
1390;SDS011;690;51.454;7.194;2023-02-07T01:26:37;36.22;;;19.02;;
1390;SDS011;690;51.454;7.194;2023-02-07T01:29:05;33.85;;;17.23;;
1390;SDS011;690;51.454;7.194;2023-02-07T01:31:33;36.97;;;20.38;;
1390;SDS011;690;51.454;7.194;2023-02-07T01:34:00;35.75;;;19.13;;
1390;SDS011;690;51.454;7.194;2023-02-07T01:36:27;32.45;;;17.83;;
1390;SDS011;690;51.454;7.194;2023-02-07T01:38:55;37.17;;;19.60;;
1390;SDS011;690;51.454;7.194;2023-02-07T01:41:23;32.85;;;16.88;;
1390;SDS011;690;51.454;7.194;2023-02-07T01:44:01;33.33;;;18.15;;
1390;SDS011;690;51.454;7.194;2023-02-07T01:46:30;34.40;;;18.98;;
1390;SDS011;690;51.454;7.194;2023-02-07T01:49:00;33.65;;;18.92;;
1390;SDS011;690;51.454;7.194;2023-02-07T01:51:31;34.17;;;17.75;;
1390;SDS011;690;51.454;7.194;2023-02-07T01:53:59;30.63;;;16.67;;
1390;SDS011;690;51.454;7.194;2023-02-07T01:56:28;35.83;;;18.55;;
1390;SDS011;690;51.454;7.194;2023-02-07T01:58:56;28.65;;;18.35;;
1390;SDS011;690;51.454;7.194;2023-02-07T02:01:24;29.73;;;17.30;;
1390;SDS011;690;51.454;7.194;2023-02-07T02:03:52;33.42;;;17.20;;
1390;SDS011;690;51.454;7.194;2023-02-07T02:06:21;30.02;;;17.27;;
1390;SDS011;690;51.454;7.194;2023-02-07T02:08:52;34.28;;;18.45;;
1390;SDS011;690;51.454;7.194;2023-02-07T02:11:32;34.40;;;17.85;;
1390;SDS011;690;51.454;7.194;2023-02-07T02:14:15;35.90;;;17.67;;
1390;SDS011;690;51.454;7.194;2023-02-07T02:16:54;32.35;;;17.77;;
1390;SDS011;690;51.454;7.194;2023-02-07T02:19:35;30.75;;;16.80;;
1390;SDS011;690;51.454;7.194;2023-02-07T02:22:22;34.50;;;16.35;;
1390;SDS011;690;51.454;7.194;2023-02-07T02:25:22;33.15;;;16.67;;
1390;SDS011;690;51.454;7.194;2023-02-07T02:28:13;30.20;;;16.65;;
1390;SDS011;690;51.454;7.194;2023-02-07T02:34:01;26.42;;;16.05;;
1390;SDS011;690;51.454;7.194;2023-02-07T02:36:33;29.40;;;16.15;;
1390;SDS011;690;51.454;7.194;2023-02-07T02:39:12;27.02;;;16.17;;
1390;SDS011;690;51.454;7.194;2023-02-07T02:41:48;28.95;;;16.13;;
1390;SDS011;690;51.454;7.194;2023-02-07T02:44:24;26.30;;;16.02;;
1390;SDS011;690;51.454;7.194;2023-02-07T02:46:55;36.05;;;17.38;;
1390;SDS011;690;51.454;7.194;2023-02-07T02:49:26;32.13;;;16.98;;
1390;SDS011;690;51.454;7.194;2023-02-07T02:51:54;30.13;;;16.55;;
1390;SDS011;690;51.454;7.194;2023-02-07T02:54:25;28.77;;;15.93;;
1390;SDS011;690;51.454;7.194;2023-02-07T02:57:01;29.98;;;17.40;;
1390;SDS011;690;51.454;7.194;2023-02-07T02:59:52;28.92;;;16.58;;
1390;SDS011;690;51.454;7.194;2023-02-07T03:02:50;28.65;;;15.23;;
1390;SDS011;690;51.454;7.194;2023-02-07T03:05:37;29.48;;;16.30;;
1390;SDS011;690;51.454;7.194;2023-02-07T03:08:16;30.70;;;16.73;;
1390;SDS011;690;51.454;7.194;2023-02-07T03:10:54;26.55;;;15.40;;
1390;SDS011;690;51.454;7.194;2023-02-07T03:13:28;24.35;;;14.77;;
1390;SDS011;690;51.454;7.194;2023-02-07T03:16:01;28.77;;;16.27;;
1390;SDS011;690;51.454;7.194;2023-02-07T03:18:38;34.55;;;17.05;;
1390;SDS011;690;51.454;7.194;2023-02-07T03:21:14;30.60;;;15.77;;
1390;SDS011;690;51.454;7.194;2023-02-07T03:23:48;33.10;;;17.67;;
1390;SDS011;690;51.454;7.194;2023-02-07T03:26:16;30.80;;;15.80;;
1390;SDS011;690;51.454;7.194;2023-02-07T03:28:45;27.73;;;16.13;;
1390;SDS011;690;51.454;7.194;2023-02-07T03:31:14;29.88;;;16.75;;
1390;SDS011;690;51.454;7.194;2023-02-07T03:33:43;25.80;;;14.77;;
1390;SDS011;690;51.454;7.194;2023-02-07T03:36:16;24.25;;;15.90;;
1390;SDS011;690;51.454;7.194;2023-02-07T03:38:47;28.55;;;15.43;;
1390;SDS011;690;51.454;7.194;2023-02-07T03:41:15;25.15;;;15.10;;
1390;SDS011;690;51.454;7.194;2023-02-07T03:43:49;28.95;;;15.38;;
1390;SDS011;690;51.454;7.194;2023-02-07T03:46:17;25.48;;;15.68;;
1390;SDS011;690;51.454;7.194;2023-02-07T03:48:44;31.70;;;15.13;;
1390;SDS011;690;51.454;7.194;2023-02-07T03:51:11;28.13;;;13.88;;
1390;SDS011;690;51.454;7.194;2023-02-07T03:53:39;29.90;;;14.85;;
1390;SDS011;690;51.454;7.194;2023-02-07T03:56:06;24.45;;;13.80;;
1390;SDS011;690;51.454;7.194;2023-02-07T03:58:33;26.85;;;14.88;;
1390;SDS011;690;51.454;7.194;2023-02-07T04:01:00;24.38;;;13.88;;
1390;SDS011;690;51.454;7.194;2023-02-07T04:03:27;24.60;;;13.73;;
1390;SDS011;690;51.454;7.194;2023-02-07T04:05:54;21.45;;;14.02;;
1390;SDS011;690;51.454;7.194;2023-02-07T04:08:20;25.55;;;12.70;;
1390;SDS011;690;51.454;7.194;2023-02-07T04:10:56;20.25;;;14.07;;
1390;SDS011;690;51.454;7.194;2023-02-07T04:13:23;21.90;;;13.32;;
1390;SDS011;690;51.454;7.194;2023-02-07T04:15:51;25.90;;;14.10;;
1390;SDS011;690;51.454;7.194;2023-02-07T04:18:17;24.63;;;14.00;;
1390;SDS011;690;51.454;7.194;2023-02-07T04:20:44;25.25;;;13.93;;
1390;SDS011;690;51.454;7.194;2023-02-07T04:23:12;21.40;;;12.70;;
1390;SDS011;690;51.454;7.194;2023-02-07T04:25:39;23.48;;;13.07;;
1390;SDS011;690;51.454;7.194;2023-02-07T04:28:07;24.13;;;13.52;;
1390;SDS011;690;51.454;7.194;2023-02-07T04:30:34;18.75;;;12.15;;
1390;SDS011;690;51.454;7.194;2023-02-07T04:33:01;21.77;;;12.68;;
1390;SDS011;690;51.454;7.194;2023-02-07T04:35:28;22.80;;;13.63;;
1390;SDS011;690;51.454;7.194;2023-02-07T04:37:55;23.85;;;13.95;;
1390;SDS011;690;51.454;7.194;2023-02-07T04:40:21;21.83;;;13.25;;
1390;SDS011;690;51.454;7.194;2023-02-07T04:42:48;21.85;;;12.88;;
1390;SDS011;690;51.454;7.194;2023-02-07T04:45:16;21.08;;;13.20;;
1390;SDS011;690;51.454;7.194;2023-02-07T04:47:43;21.08;;;12.88;;
1390;SDS011;690;51.454;7.194;2023-02-07T04:50:10;19.45;;;13.48;;
1390;SDS011;690;51.454;7.194;2023-02-07T04:52:38;19.65;;;13.10;;
1390;SDS011;690;51.454;7.194;2023-02-07T04:55:05;21.67;;;12.15;;
1390;SDS011;690;51.454;7.194;2023-02-07T04:57:33;25.55;;;15.00;;
1390;SDS011;690;51.454;7.194;2023-02-07T04:59:59;21.27;;;13.18;;
1390;SDS011;690;51.454;7.194;2023-02-07T05:02:28;27.05;;;14.90;;
1390;SDS011;690;51.454;7.194;2023-02-07T05:04:55;24.40;;;14.88;;
1390;SDS011;690;51.454;7.194;2023-02-07T05:07:22;24.00;;;14.68;;
1390;SDS011;690;51.454;7.194;2023-02-07T05:09:49;26.23;;;15.70;;
1390;SDS011;690;51.454;7.194;2023-02-07T05:12:17;22.02;;;14.27;;
1390;SDS011;690;51.454;7.194;2023-02-07T05:14:44;21.58;;;14.50;;
1390;SDS011;690;51.454;7.194;2023-02-07T05:17:11;27.52;;;15.40;;
1390;SDS011;690;51.454;7.194;2023-02-07T05:19:39;25.25;;;14.57;;
1390;SDS011;690;51.454;7.194;2023-02-07T05:22:06;24.27;;;14.20;;
1390;SDS011;690;51.454;7.194;2023-02-07T05:24:33;27.08;;;14.40;;
1390;SDS011;690;51.454;7.194;2023-02-07T05:27:00;22.33;;;13.85;;
1390;SDS011;690;51.454;7.194;2023-02-07T05:29:26;26.65;;;15.38;;
1390;SDS011;690;51.454;7.194;2023-02-07T05:31:53;24.98;;;15.02;;
1390;SDS011;690;51.454;7.194;2023-02-07T05:34:40;25.10;;;15.40;;
1390;SDS011;690;51.454;7.194;2023-02-07T05:37:06;27.90;;;15.43;;
1390;SDS011;690;51.454;7.194;2023-02-07T05:39:33;22.10;;;13.93;;
1390;SDS011;690;51.454;7.194;2023-02-07T05:42:00;25.08;;;14.52;;
1390;SDS011;690;51.454;7.194;2023-02-07T05:44:27;22.17;;;13.75;;
1390;SDS011;690;51.454;7.194;2023-02-07T05:46:54;23.85;;;14.10;;
1390;SDS011;690;51.454;7.194;2023-02-07T05:49:21;27.27;;;14.75;;
1390;SDS011;690;51.454;7.194;2023-02-07T05:51:49;27.92;;;14.68;;
1390;SDS011;690;51.454;7.194;2023-02-07T05:54:16;22.58;;;13.80;;
1390;SDS011;690;51.454;7.194;2023-02-07T05:56:43;23.10;;;14.85;;
1390;SDS011;690;51.454;7.194;2023-02-07T05:59:10;22.08;;;14.00;;
1390;SDS011;690;51.454;7.194;2023-02-07T06:01:37;26.88;;;14.77;;
1390;SDS011;690;51.454;7.194;2023-02-07T06:04:04;27.58;;;15.50;;
1390;SDS011;690;51.454;7.194;2023-02-07T06:06:31;24.33;;;13.98;;
1390;SDS011;690;51.454;7.194;2023-02-07T06:08:59;21.52;;;14.13;;
1390;SDS011;690;51.454;7.194;2023-02-07T06:11:26;26.63;;;14.73;;
1390;SDS011;690;51.454;7.194;2023-02-07T06:13:53;23.85;;;14.02;;
1390;SDS011;690;51.454;7.194;2023-02-07T06:16:20;23.77;;;13.90;;
1390;SDS011;690;51.454;7.194;2023-02-07T06:18:46;24.05;;;13.90;;
1390;SDS011;690;51.454;7.194;2023-02-07T06:21:13;23.50;;;14.18;;
1390;SDS011;690;51.454;7.194;2023-02-07T06:23:40;26.92;;;14.00;;
1390;SDS011;690;51.454;7.194;2023-02-07T06:26:08;23.38;;;14.18;;
1390;SDS011;690;51.454;7.194;2023-02-07T06:28:36;24.73;;;13.05;;
1390;SDS011;690;51.454;7.194;2023-02-07T06:31:03;22.75;;;13.75;;
1390;SDS011;690;51.454;7.194;2023-02-07T06:33:30;23.83;;;14.55;;
1390;SDS011;690;51.454;7.194;2023-02-07T06:35:57;19.63;;;13.10;;
1390;SDS011;690;51.454;7.194;2023-02-07T06:38:24;24.60;;;14.30;;
1390;SDS011;690;51.454;7.194;2023-02-07T06:40:51;22.40;;;13.38;;
1390;SDS011;690;51.454;7.194;2023-02-07T06:43:19;21.80;;;14.50;;
1390;SDS011;690;51.454;7.194;2023-02-07T06:45:46;25.95;;;14.50;;
1390;SDS011;690;51.454;7.194;2023-02-07T06:48:13;24.90;;;14.60;;
1390;SDS011;690;51.454;7.194;2023-02-07T06:50:40;19.83;;;12.95;;
1390;SDS011;690;51.454;7.194;2023-02-07T06:53:06;28.70;;;14.23;;
1390;SDS011;690;51.454;7.194;2023-02-07T06:55:34;24.63;;;14.52;;
1390;SDS011;690;51.454;7.194;2023-02-07T06:58:03;24.67;;;15.50;;
1390;SDS011;690;51.454;7.194;2023-02-07T07:00:31;31.65;;;14.90;;
1390;SDS011;690;51.454;7.194;2023-02-07T07:02:58;26.05;;;15.68;;
1390;SDS011;690;51.454;7.194;2023-02-07T07:05:26;29.17;;;16.35;;
1390;SDS011;690;51.454;7.194;2023-02-07T07:07:53;27.85;;;16.30;;
1390;SDS011;690;51.454;7.194;2023-02-07T07:10:20;21.13;;;13.15;;
1390;SDS011;690;51.454;7.194;2023-02-07T07:12:47;28.30;;;16.17;;
1390;SDS011;690;51.454;7.194;2023-02-07T07:15:14;24.17;;;15.40;;
1390;SDS011;690;51.454;7.194;2023-02-07T07:17:42;21.58;;;14.18;;
1390;SDS011;690;51.454;7.194;2023-02-07T07:20:09;24.83;;;14.07;;
1390;SDS011;690;51.454;7.194;2023-02-07T07:22:37;24.55;;;14.90;;
1390;SDS011;690;51.454;7.194;2023-02-07T07:25:04;20.17;;;13.20;;
1390;SDS011;690;51.454;7.194;2023-02-07T07:27:32;22.15;;;12.65;;
1390;SDS011;690;51.454;7.194;2023-02-07T07:29:59;26.20;;;13.40;;
1390;SDS011;690;51.454;7.194;2023-02-07T07:32:26;24.90;;;13.93;;
1390;SDS011;690;51.454;7.194;2023-02-07T07:34:54;25.73;;;13.60;;
1390;SDS011;690;51.454;7.194;2023-02-07T07:37:21;32.15;;;18.55;;
1390;SDS011;690;51.454;7.194;2023-02-07T07:39:48;25.38;;;14.80;;
1390;SDS011;690;51.454;7.194;2023-02-07T07:42:15;29.05;;;14.55;;
1390;SDS011;690;51.454;7.194;2023-02-07T07:44:42;22.13;;;13.40;;
1390;SDS011;690;51.454;7.194;2023-02-07T07:47:08;24.13;;;16.00;;
1390;SDS011;690;51.454;7.194;2023-02-07T07:49:37;23.15;;;13.60;;
1390;SDS011;690;51.454;7.194;2023-02-07T07:52:05;26.73;;;16.17;;
1390;SDS011;690;51.454;7.194;2023-02-07T07:54:32;22.27;;;14.60;;
1390;SDS011;690;51.454;7.194;2023-02-07T07:56:59;26.58;;;15.00;;
1390;SDS011;690;51.454;7.194;2023-02-07T07:59:25;23.20;;;13.30;;
1390;SDS011;690;51.454;7.194;2023-02-07T08:01:52;20.00;;;12.68;;
1390;SDS011;690;51.454;7.194;2023-02-07T08:04:19;19.42;;;13.45;;
1390;SDS011;690;51.454;7.194;2023-02-07T08:06:46;18.38;;;12.77;;
1390;SDS011;690;51.454;7.194;2023-02-07T08:09:14;19.80;;;13.52;;
1390;SDS011;690;51.454;7.194;2023-02-07T08:11:41;23.60;;;12.68;;
1390;SDS011;690;51.454;7.194;2023-02-07T08:14:08;19.40;;;13.00;;
1390;SDS011;690;51.454;7.194;2023-02-07T08:16:35;22.13;;;13.55;;
1390;SDS011;690;51.454;7.194;2023-02-07T08:19:02;19.83;;;13.00;;
1390;SDS011;690;51.454;7.194;2023-02-07T08:21:29;18.35;;;12.32;;
1390;SDS011;690;51.454;7.194;2023-02-07T08:23:56;19.83;;;13.98;;
1390;SDS011;690;51.454;7.194;2023-02-07T08:26:24;21.20;;;13.30;;
1390;SDS011;690;51.454;7.194;2023-02-07T08:28:51;29.92;;;13.68;;
1390;SDS011;690;51.454;7.194;2023-02-07T08:31:18;19.00;;;12.05;;
1390;SDS011;690;51.454;7.194;2023-02-07T08:33:45;15.30;;;11.48;;
1390;SDS011;690;51.454;7.194;2023-02-07T08:36:12;16.75;;;12.15;;
1390;SDS011;690;51.454;7.194;2023-02-07T08:38:39;18.42;;;11.27;;
1390;SDS011;690;51.454;7.194;2023-02-07T08:41:06;19.13;;;10.88;;
1390;SDS011;690;51.454;7.194;2023-02-07T08:43:34;14.90;;;10.98;;
1390;SDS011;690;51.454;7.194;2023-02-07T08:46:02;17.77;;;11.00;;
1390;SDS011;690;51.454;7.194;2023-02-07T08:48:29;17.65;;;11.43;;
1390;SDS011;690;51.454;7.194;2023-02-07T08:50:56;15.02;;;10.73;;
1390;SDS011;690;51.454;7.194;2023-02-07T08:53:23;17.55;;;11.95;;
1390;SDS011;690;51.454;7.194;2023-02-07T08:55:50;20.30;;;13.20;;
1390;SDS011;690;51.454;7.194;2023-02-07T08:58:16;22.27;;;12.25;;
1390;SDS011;690;51.454;7.194;2023-02-07T09:00:45;19.23;;;12.27;;
1390;SDS011;690;51.454;7.194;2023-02-07T09:03:11;17.63;;;11.55;;
1390;SDS011;690;51.454;7.194;2023-02-07T09:05:39;18.52;;;12.05;;
1390;SDS011;690;51.454;7.194;2023-02-07T09:08:06;16.00;;;11.80;;
1390;SDS011;690;51.454;7.194;2023-02-07T09:10:33;22.15;;;13.70;;
1390;SDS011;690;51.454;7.194;2023-02-07T09:13:00;14.82;;;11.40;;
1390;SDS011;690;51.454;7.194;2023-02-07T09:15:27;20.95;;;13.18;;
1390;SDS011;690;51.454;7.194;2023-02-07T09:17:55;26.25;;;17.25;;
1390;SDS011;690;51.454;7.194;2023-02-07T09:20:22;21.15;;;13.52;;
1390;SDS011;690;51.454;7.194;2023-02-07T09:22:49;17.15;;;12.18;;
1390;SDS011;690;51.454;7.194;2023-02-07T09:25:35;18.80;;;12.23;;
1390;SDS011;690;51.454;7.194;2023-02-07T09:28:02;16.85;;;11.27;;
1390;SDS011;690;51.454;7.194;2023-02-07T09:30:29;16.23;;;9.82;;
1390;SDS011;690;51.454;7.194;2023-02-07T09:32:58;13.75;;;10.10;;
1390;SDS011;690;51.454;7.194;2023-02-07T09:35:25;15.02;;;11.48;;
1390;SDS011;690;51.454;7.194;2023-02-07T09:37:52;13.05;;;9.45;;
1390;SDS011;690;51.454;7.194;2023-02-07T09:40:19;12.15;;;9.77;;
1390;SDS011;690;51.454;7.194;2023-02-07T09:42:49;13.48;;;9.00;;
1390;SDS011;690;51.454;7.194;2023-02-07T09:45:21;13.93;;;9.38;;
1390;SDS011;690;51.454;7.194;2023-02-07T09:47:51;9.80;;;8.65;;
1390;SDS011;690;51.454;7.194;2023-02-07T09:50:26;12.18;;;7.72;;
1390;SDS011;690;51.454;7.194;2023-02-07T09:52:56;10.85;;;7.68;;
1390;SDS011;690;51.454;7.194;2023-02-07T09:55:30;10.43;;;6.45;;
1390;SDS011;690;51.454;7.194;2023-02-07T09:58:05;10.05;;;7.35;;
1390;SDS011;690;51.454;7.194;2023-02-07T10:00:37;9.07;;;6.97;;
1390;SDS011;690;51.454;7.194;2023-02-07T10:03:08;26.65;;;7.97;;
1390;SDS011;690;51.454;7.194;2023-02-07T10:05:42;10.85;;;8.15;;
1390;SDS011;690;51.454;7.194;2023-02-07T10:08:14;9.85;;;7.15;;
1390;SDS011;690;51.454;7.194;2023-02-07T10:10:44;8.65;;;6.80;;
1390;SDS011;690;51.454;7.194;2023-02-07T10:13:20;8.25;;;6.63;;
1390;SDS011;690;51.454;7.194;2023-02-07T10:16:12;13.13;;;8.52;;
1390;SDS011;690;51.454;7.194;2023-02-07T10:18:52;10.57;;;7.20;;
1390;SDS011;690;51.454;7.194;2023-02-07T10:21:28;10.05;;;7.20;;
1390;SDS011;690;51.454;7.194;2023-02-07T10:24:10;10.93;;;7.03;;
1390;SDS011;690;51.454;7.194;2023-02-07T10:26:50;8.38;;;6.68;;
1390;SDS011;690;51.454;7.194;2023-02-07T10:29:22;8.35;;;6.43;;
1390;SDS011;690;51.454;7.194;2023-02-07T10:32:14;9.65;;;6.03;;
1390;SDS011;690;51.454;7.194;2023-02-07T10:34:44;7.00;;;5.93;;
1390;SDS011;690;51.454;7.194;2023-02-07T10:37:16;8.13;;;6.60;;
1390;SDS011;690;51.454;7.194;2023-02-07T10:39:47;8.82;;;6.47;;
1390;SDS011;690;51.454;7.194;2023-02-07T10:42:18;8.40;;;7.40;;
1390;SDS011;690;51.454;7.194;2023-02-07T10:44:45;11.07;;;8.40;;
1390;SDS011;690;51.454;7.194;2023-02-07T10:47:13;8.32;;;7.32;;
1390;SDS011;690;51.454;7.194;2023-02-07T10:49:43;10.20;;;8.13;;
1390;SDS011;690;51.454;7.194;2023-02-07T10:52:16;15.43;;;8.60;;
1390;SDS011;690;51.454;7.194;2023-02-07T10:54:53;13.98;;;8.35;;
1390;SDS011;690;51.454;7.194;2023-02-07T10:57:21;21.48;;;11.63;;
1390;SDS011;690;51.454;7.194;2023-02-07T10:59:49;11.43;;;7.75;;
1390;SDS011;690;51.454;7.194;2023-02-07T11:02:45;17.45;;;9.65;;
1390;SDS011;690;51.454;7.194;2023-02-07T11:05:33;29.48;;;9.70;;
1390;SDS011;690;51.454;7.194;2023-02-07T11:08:04;9.20;;;7.13;;
1390;SDS011;690;51.454;7.194;2023-02-07T11:10:42;10.38;;;7.63;;
1390;SDS011;690;51.454;7.194;2023-02-07T11:13:10;10.90;;;7.30;;
1390;SDS011;690;51.454;7.194;2023-02-07T11:15:44;13.38;;;7.38;;
1390;SDS011;690;51.454;7.194;2023-02-07T11:18:36;9.90;;;7.43;;
1390;SDS011;690;51.454;7.194;2023-02-07T11:21:07;8.05;;;6.93;;
1390;SDS011;690;51.454;7.194;2023-02-07T11:23:49;8.80;;;7.45;;
1390;SDS011;690;51.454;7.194;2023-02-07T11:26:17;9.77;;;8.05;;
1390;SDS011;690;51.454;7.194;2023-02-07T11:28:49;6.82;;;6.13;;
1390;SDS011;690;51.454;7.194;2023-02-07T11:31:17;7.60;;;6.32;;
1390;SDS011;690;51.454;7.194;2023-02-07T11:33:48;8.40;;;6.90;;
1390;SDS011;690;51.454;7.194;2023-02-07T11:36:19;8.82;;;6.68;;
1390;SDS011;690;51.454;7.194;2023-02-07T11:38:53;9.45;;;5.90;;
1390;SDS011;690;51.454;7.194;2023-02-07T11:41:22;18.58;;;7.18;;
1390;SDS011;690;51.454;7.194;2023-02-07T11:43:50;7.80;;;6.47;;
1390;SDS011;690;51.454;7.194;2023-02-07T11:46:23;9.45;;;6.63;;
1390;SDS011;690;51.454;7.194;2023-02-07T11:48:58;9.02;;;6.35;;
1390;SDS011;690;51.454;7.194;2023-02-07T11:51:26;7.43;;;6.45;;
1390;SDS011;690;51.454;7.194;2023-02-07T11:53:58;6.60;;;5.90;;
1390;SDS011;690;51.454;7.194;2023-02-07T11:56:28;9.07;;;6.13;;
1390;SDS011;690;51.454;7.194;2023-02-07T11:58:57;9.20;;;5.90;;
1390;SDS011;690;51.454;7.194;2023-02-07T12:01:28;6.33;;;5.30;;
1390;SDS011;690;51.454;7.194;2023-02-07T12:03:58;6.80;;;5.73;;
1390;SDS011;690;51.454;7.194;2023-02-07T12:06:28;8.97;;;6.70;;
1390;SDS011;690;51.454;7.194;2023-02-07T12:09:01;12.53;;;8.60;;
1390;SDS011;690;51.454;7.194;2023-02-07T12:11:32;7.07;;;6.00;;
1390;SDS011;690;51.454;7.194;2023-02-07T12:14:04;7.67;;;6.33;;
1390;SDS011;690;51.454;7.194;2023-02-07T12:16:40;8.50;;;4.73;;
1390;SDS011;690;51.454;7.194;2023-02-07T12:19:13;5.37;;;4.77;;
1390;SDS011;690;51.454;7.194;2023-02-07T12:21:46;4.53;;;4.07;;
1390;SDS011;690;51.454;7.194;2023-02-07T12:24:23;7.17;;;5.63;;
1390;SDS011;690;51.454;7.194;2023-02-07T12:26:57;6.33;;;5.03;;
1390;SDS011;690;51.454;7.194;2023-02-07T12:29:32;9.73;;;5.50;;
1390;SDS011;690;51.454;7.194;2023-02-07T12:32:13;5.00;;;4.47;;
1390;SDS011;690;51.454;7.194;2023-02-07T12:34:51;5.70;;;4.60;;
1390;SDS011;690;51.454;7.194;2023-02-07T12:37:24;5.80;;;5.00;;
1390;SDS011;690;51.454;7.194;2023-02-07T12:39:58;5.50;;;4.67;;
1390;SDS011;690;51.454;7.194;2023-02-07T12:42:31;5.63;;;5.13;;
1390;SDS011;690;51.454;7.194;2023-02-07T12:45:04;5.37;;;4.87;;
1390;SDS011;690;51.454;7.194;2023-02-07T12:47:41;4.70;;;4.27;;
1390;SDS011;690;51.454;7.194;2023-02-07T12:50:20;8.50;;;5.50;;
1390;SDS011;690;51.454;7.194;2023-02-07T12:53:00;6.23;;;4.83;;
1390;SDS011;690;51.454;7.194;2023-02-07T12:55:42;7.20;;;5.23;;
1390;SDS011;690;51.454;7.194;2023-02-07T12:58:28;8.33;;;5.13;;
1390;SDS011;690;51.454;7.194;2023-02-07T13:01:06;8.27;;;5.47;;
1390;SDS011;690;51.454;7.194;2023-02-07T13:03:44;5.20;;;4.70;;
1390;SDS011;690;51.454;7.194;2023-02-07T13:06:26;6.30;;;5.20;;
1390;SDS011;690;51.454;7.194;2023-02-07T13:09:05;7.97;;;5.70;;
1390;SDS011;690;51.454;7.194;2023-02-07T13:11:38;9.93;;;5.43;;
1390;SDS011;690;51.454;7.194;2023-02-07T13:14:13;7.70;;;5.67;;
1390;SDS011;690;51.454;7.194;2023-02-07T13:16:49;6.07;;;4.90;;
1390;SDS011;690;51.454;7.194;2023-02-07T13:19:27;6.83;;;6.00;;
1390;SDS011;690;51.454;7.194;2023-02-07T13:22:01;9.40;;;6.27;;
1390;SDS011;690;51.454;7.194;2023-02-07T13:24:33;9.40;;;6.40;;
1390;SDS011;690;51.454;7.194;2023-02-07T13:27:05;7.53;;;5.63;;
1390;SDS011;690;51.454;7.194;2023-02-07T13:29:37;8.10;;;6.73;;
1390;SDS011;690;51.454;7.194;2023-02-07T13:32:06;8.43;;;6.23;;
1390;SDS011;690;51.454;7.194;2023-02-07T13:34:39;7.63;;;5.03;;
1390;SDS011;690;51.454;7.194;2023-02-07T13:37:10;7.30;;;5.90;;
1390;SDS011;690;51.454;7.194;2023-02-07T13:39:41;7.10;;;6.20;;
1390;SDS011;690;51.454;7.194;2023-02-07T13:42:22;13.17;;;6.33;;
1390;SDS011;690;51.454;7.194;2023-02-07T13:44:55;8.13;;;6.27;;
1390;SDS011;690;51.454;7.194;2023-02-07T13:50:24;11.17;;;6.00;;
1390;SDS011;690;51.454;7.194;2023-02-07T13:53:04;8.13;;;6.50;;
1390;SDS011;690;51.454;7.194;2023-02-07T13:55:41;9.97;;;7.33;;
1390;SDS011;690;51.454;7.194;2023-02-07T14:01:29;7.00;;;5.73;;
1390;SDS011;690;51.454;7.194;2023-02-07T14:03:59;8.60;;;5.97;;
1390;SDS011;690;51.454;7.194;2023-02-07T14:06:29;7.43;;;6.07;;
1390;SDS011;690;51.454;7.194;2023-02-07T14:08:59;7.97;;;6.37;;
1390;SDS011;690;51.454;7.194;2023-02-07T14:11:34;7.87;;;6.17;;
1390;SDS011;690;51.454;7.194;2023-02-07T14:14:22;7.60;;;6.40;;
1390;SDS011;690;51.454;7.194;2023-02-07T14:16:52;8.50;;;5.90;;
1390;SDS011;690;51.454;7.194;2023-02-07T14:22:14;8.80;;;6.40;;
1390;SDS011;690;51.454;7.194;2023-02-07T14:24:48;6.30;;;5.47;;
1390;SDS011;690;51.454;7.194;2023-02-07T14:27:36;12.30;;;5.67;;
1390;SDS011;690;51.454;7.194;2023-02-07T14:30:12;7.50;;;6.07;;
1390;SDS011;690;51.454;7.194;2023-02-07T14:35:35;7.97;;;6.20;;
1390;SDS011;690;51.454;7.194;2023-02-07T14:38:18;8.97;;;6.17;;
1390;SDS011;690;51.454;7.194;2023-02-07T14:40:48;6.80;;;5.23;;
1390;SDS011;690;51.454;7.194;2023-02-07T14:43:22;6.60;;;6.00;;
1390;SDS011;690;51.454;7.194;2023-02-07T14:46:02;6.97;;;5.13;;
1390;SDS011;690;51.454;7.194;2023-02-07T14:48:36;7.20;;;5.33;;
1390;SDS011;690;51.454;7.194;2023-02-07T14:51:16;8.30;;;5.33;;
1390;SDS011;690;51.454;7.194;2023-02-07T14:53:48;8.97;;;6.47;;
1390;SDS011;690;51.454;7.194;2023-02-07T14:56:38;7.73;;;5.90;;
1390;SDS011;690;51.454;7.194;2023-02-07T14:59:10;9.07;;;6.10;;
1390;SDS011;690;51.454;7.194;2023-02-07T15:01:42;10.10;;;7.33;;
1390;SDS011;690;51.454;7.194;2023-02-07T15:04:10;10.47;;;7.50;;
1390;SDS011;690;51.454;7.194;2023-02-07T15:06:38;9.53;;;7.33;;
1390;SDS011;690;51.454;7.194;2023-02-07T15:09:15;10.57;;;7.40;;
1390;SDS011;690;51.454;7.194;2023-02-07T15:11:45;8.23;;;6.30;;
1390;SDS011;690;51.454;7.194;2023-02-07T15:14:18;6.47;;;5.83;;
1390;SDS011;690;51.454;7.194;2023-02-07T15:16:47;6.17;;;5.57;;
1390;SDS011;690;51.454;7.194;2023-02-07T15:19:18;10.33;;;6.27;;
1390;SDS011;690;51.454;7.194;2023-02-07T15:21:48;12.00;;;6.60;;
1390;SDS011;690;51.454;7.194;2023-02-07T15:24:16;6.90;;;5.93;;
1390;SDS011;690;51.454;7.194;2023-02-07T15:26:48;8.97;;;5.60;;
1390;SDS011;690;51.454;7.194;2023-02-07T15:29:18;8.10;;;6.30;;
1390;SDS011;690;51.454;7.194;2023-02-07T15:31:46;12.20;;;7.37;;
1390;SDS011;690;51.454;7.194;2023-02-07T15:34:14;7.27;;;6.13;;
1390;SDS011;690;51.454;7.194;2023-02-07T15:36:43;10.53;;;7.13;;
1390;SDS011;690;51.454;7.194;2023-02-07T15:39:13;12.03;;;7.10;;
1390;SDS011;690;51.454;7.194;2023-02-07T15:41:42;8.70;;;5.83;;
1390;SDS011;690;51.454;7.194;2023-02-07T15:44:17;8.23;;;6.00;;
1390;SDS011;690;51.454;7.194;2023-02-07T15:46:47;9.17;;;6.40;;